Stevens Point, WI (54492)

7:50 AM CDT on September 01, 2014 (GMT -0500)
Wally the Weather Station | Change Station
CLOSE
Current Station
Personal Weather Station
Location: Stevens Point, WI
Elevation: 1095 ft
Nearby Weather Stations

Elev 1095 ft 44.50 °N, 89.52 °W | Updated 1 second ago

Rain
Rain
65.7 °F
Feels Like 65.7 °F
N
0.0
Wind Variable Wind from North
Gusts 0.0 mph

Today
High -- | Low -- °F
--% Chance of Precip.
Yesterday
High -- | Low -- °F
Precip. -- in
6:20 AM 7:34 PM
Waxing Crescent, 40% visible
Pressure 29.70 in
Visibility 10.0 miles
Clouds Scattered Clouds 6500 ft
Mostly Cloudy 8500 ft
Overcast 11000 ft
Dew Point 61 °F
Humidity 84%
Rainfall 0.05 in
Snow Depth Not available.
UV 0 out of 12
Pollen 3.60 out of 12
Air Quality Not available.
Flu Activity Not available.
METAR KSTE 011235Z AUTO 21008KT 10SM RA SCT065 BKN085 OVC110 18/15 A2970 RMK AO2 LTG DSNT W T01770152

More Conditions Fewer Conditions

Pressure 29.70 in
Visibility 10.0 miles
Clouds Scattered Clouds 6500 ft
Mostly Cloudy 8500 ft
Overcast 11000 ft
Dew Point 61 °F
Humidity 84%
Rainfall 0.05 in
Snow Depth Not available.
UV 0 out of 12
Pollen 3.60 out of 12
Air Quality Not available.
Flu Activity Not available.
METAR KSTE 011235Z AUTO 21008KT 10SM RA SCT065 BKN085 OVC110 18/15 A2970 RMK AO2 LTG DSNT W T01770152

More Conditions Fewer Conditions

10-Day Weather Forecast

Almanac

Astronomy

Sep. 01, 2014 Rise Set
Actual Time 6:20 AM CDT 7:34 PM CDT
Civil Twilight 5:50 AM CDT 8:04 PM CDT
Nautical Twilight 5:14 AM CDT 8:40 PM CDT
Astronomical Twilight 4:36 AM CDT 9:18 PM CDT
Moon 1:22 PM CDT 11:19 PM CDT
Length of Visible Light 14h 13m
Length of Day
13h 13m
Tomorrow will be 2m 58s shorter.
Waxing Crescent, 40% of the Moon is Illuminated
Today
Waxing Crescent
Sep 2
First Quarter
Sep 8
Full
Sep 15
Last Quarter
Sep 24
New

Today's Extremes

State Highs State Lows

Community

WunderPhotos

Upload Photos

1,749,199 photos uploaded!

Nearby

Snow Depth

Station Depth Elevation
No new snow has been reported.

Earthquake Activity

City Distance Mag. Time & Date
No recent earthquake activity has been reported nearby.
Minimum magnitude displayed is 2.5.

Coastal Water Temperatures

Place Temperature
No Stations Reporting

Nearby Weather Stations